Terminal Aerodrome Forecast
Issued by NWS

Home | Current Version | Previous Version | Graphics & Text | Print | Product List | Glossary On
Versions: 1 2 3 4 5 6 7 8 9 10 11 12 13 14 15 16 17 18 19 20 21 22 23 24 25 26 27 28 29 30 31 32 33 34
000
FTUS43 KLOT 061141
TAFMDW
TAF
KMDW 061141Z 0612/0712 18007KT 6SM BR FEW040 SCT250
     FM061500 20011G16KT P6SM FEW040 BKN250
     FM061900 21014G23KT P6SM SCT040 BKN250
     FM070000 20012G18KT 6SM -SHRA VCTS BKN050CB OVC180
      TEMPO 0700/0702 3SM -TSRA
     FM070400 22011G15KT 6SM -SHRA SCT025 OVC035
     FM070900 29010KT P6SM VCSH SCT008 BKN015 OVC035=

USA.gov is the U.S. government's official web portal to all federal, state and local government web resources and services.